createdAt,value
2023-04-16T00:01:50.086Z,99169.72
2023-04-16T00:04:24.609Z,99178.28
2023-04-16T00:06:57.800Z,99176.47
2023-04-16T00:09:31.051Z,99177.25
2023-04-16T00:12:04.746Z,99175.72
2023-04-16T00:14:38.189Z,99172.81
2023-04-16T00:17:12.013Z,99172.09
2023-04-16T00:19:46.619Z,99170.25
2023-04-16T00:22:20.544Z,99171.78
2023-04-16T00:24:54.037Z,99175.78
2023-04-16T00:27:27.239Z,99172.53
2023-04-16T00:30:00.220Z,99173.69
2023-04-16T00:32:33.164Z,99170.25
2023-04-16T00:35:08.433Z,99161.16
2023-04-16T00:37:41.490Z,99170.25
2023-04-16T00:40:14.640Z,99160.47
2023-04-16T00:42:47.876Z,99160.94
2023-04-16T00:45:20.951Z,99159.41
2023-04-16T00:47:54.054Z,99158.94
2023-04-16T00:50:28.817Z,99158.94
2023-04-16T00:53:02.446Z,99169.00
2023-04-16T00:55:35.860Z,99150.34
2023-04-16T00:58:08.991Z,99156.66
2023-04-16T01:00:42.052Z,99150.22
2023-04-16T01:03:15.022Z,99145.72
2023-04-16T01:05:50.749Z,99151.06
2023-04-16T01:08:23.831Z,99141.53
2023-04-16T01:10:57.294Z,99152.09
2023-04-16T01:13:33.623Z,99156.47
2023-04-16T01:16:07.966Z,99150.94
2023-04-16T01:18:41.494Z,99142.31
2023-04-16T01:21:16.174Z,99135.31
2023-04-16T01:23:49.336Z,99136.56
2023-04-16T01:26:22.484Z,99140.00
2023-04-16T01:28:55.872Z,99136.63
2023-04-16T01:31:28.902Z,99133.13
2023-04-16T01:34:01.950Z,99128.97
2023-04-16T01:36:36.750Z,99130.09
2023-04-16T01:39:11.610Z,99128.78
2023-04-16T01:41:45.098Z,99134.28
2023-04-16T01:44:18.045Z,99129.09
2023-04-16T01:46:51.037Z,99132.88
2023-04-16T01:49:24.292Z,99132.97
2023-04-16T01:51:58.734Z,99140.19
2023-04-16T01:54:31.993Z,99140.78
2023-04-16T01:57:05.424Z,99142.78
2023-04-16T01:59:38.642Z,99141.97
2023-04-16T02:02:12.348Z,99135.22
2023-04-16T02:04:46.780Z,99139.66
2023-04-16T02:07:21.091Z,99128.66
2023-04-16T02:09:54.849Z,99142.72
2023-04-16T02:12:28.657Z,99129.69
2023-04-16T02:15:02.231Z,99126.66
2023-04-16T02:17:35.641Z,99131.13
2023-04-16T02:20:10.301Z,99128.22
2023-04-16T02:22:44.843Z,99130.44
2023-04-16T02:25:18.177Z,99122.38
2023-04-16T02:27:51.416Z,99125.50
2023-04-16T02:30:25.307Z,99130.47
2023-04-16T02:32:58.457Z,99125.09
2023-04-16T02:35:31.386Z,99129.81
2023-04-16T02:38:05.929Z,99127.22
2023-04-16T02:40:39.128Z,99122.41
2023-04-16T02:43:12.183Z,99116.47
2023-04-16T02:45:45.128Z,99108.72
2023-04-16T02:48:18.126Z,99114.53
2023-04-16T02:50:51.006Z,99116.84
2023-04-16T02:53:26.487Z,99123.88
2023-04-16T02:55:59.806Z,99115.66
2023-04-16T02:58:32.912Z,99115.38
2023-04-16T03:01:05.952Z,99116.59
2023-04-16T03:03:39.071Z,99119.78
2023-04-16T03:06:12.062Z,99136.53
2023-04-16T03:08:46.523Z,99132.59
2023-04-16T03:11:20.449Z,99135.72
2023-04-16T03:13:53.942Z,99134.78
2023-04-16T03:16:27.473Z,99136.78
2023-04-16T03:19:00.789Z,99139.13
2023-04-16T03:21:33.738Z,99146.63
2023-04-16T03:24:08.381Z,99139.94
2023-04-16T03:26:41.626Z,99149.69
2023-04-16T03:29:14.607Z,99153.44
2023-04-16T03:31:47.793Z,99152.44
2023-04-16T03:34:22.630Z,99153.44
2023-04-16T03:36:55.930Z,99153.09
2023-04-16T03:39:30.799Z,99154.25
2023-04-16T03:42:03.759Z,99158.75
2023-04-16T03:44:36.650Z,99158.53
2023-04-16T03:47:09.812Z,99161.63
2023-04-16T03:49:42.986Z,99166.38
2023-04-16T03:52:15.964Z,99162.81
2023-04-16T03:54:50.646Z,99166.19
2023-04-16T03:57:23.889Z,99162.84
2023-04-16T03:59:57.173Z,99158.53
2023-04-16T04:02:30.317Z,99162.03
2023-04-16T04:05:03.810Z,99160.31
2023-04-16T04:07:37.097Z,99159.34
2023-04-16T04:10:12.360Z,99165.47
2023-04-16T04:12:45.864Z,99170.59
2023-04-16T04:15:19.302Z,99171.00
2023-04-16T04:17:52.689Z,99171.31
2023-04-16T04:20:26.146Z,99173.03
2023-04-16T04:22:59.381Z,99185.22
2023-04-16T04:25:34.170Z,99194.44
2023-04-16T04:28:07.256Z,99192.47
2023-04-16T04:30:40.348Z,99191.69
2023-04-16T04:33:13.608Z,99195.16
2023-04-16T04:35:46.489Z,99199.28
2023-04-16T04:38:21.225Z,99202.47
2023-04-16T04:40:55.877Z,99208.06
2023-04-16T04:43:28.901Z,99217.78
2023-04-16T04:46:01.810Z,99219.81
2023-04-16T04:48:35.149Z,99220.69
2023-04-16T04:51:08.198Z,99222.31
2023-04-16T04:53:41.328Z,99228.44
2023-04-16T04:56:15.982Z,99223.25
2023-04-16T04:58:50.659Z,99229.41
2023-04-16T05:01:23.677Z,99234.44
2023-04-16T05:03:56.838Z,99225.59
2023-04-16T05:06:29.757Z,99235.16
2023-04-16T05:09:03.518Z,99228.19
2023-04-16T05:11:38.087Z,99226.31
2023-04-16T05:14:11.663Z,99225.31
2023-04-16T05:16:45.118Z,99222.19
2023-04-16T05:19:18.455Z,99225.47
2023-04-16T05:21:51.780Z,99222.72
2023-04-16T05:24:25.002Z,99226.25
2023-04-16T05:26:59.529Z,99221.34
2023-04-16T05:29:32.948Z,99212.34
2023-04-16T05:32:06.128Z,99212.38
2023-04-16T05:34:39.362Z,99222.50
2023-04-16T05:37:12.322Z,99220.44
2023-04-16T05:39:45.861Z,99222.41
2023-04-16T05:42:20.655Z,99225.19
2023-04-16T05:44:53.873Z,99231.00
2023-04-16T05:47:26.858Z,99214.47
2023-04-16T05:49:59.948Z,99213.03
2023-04-16T05:52:33.059Z,99213.41
2023-04-16T05:55:07.254Z,99209.16
2023-04-16T05:57:42.189Z,99206.63
2023-04-16T06:00:15.640Z,99209.25
2023-04-16T06:02:48.857Z,99207.09
2023-04-16T06:05:21.871Z,99201.84
2023-04-16T06:07:56.034Z,99199.94
2023-04-16T06:10:29.669Z,99206.44
2023-04-16T06:13:05.146Z,99207.63
2023-04-16T06:15:38.190Z,99201.63
2023-04-16T06:18:11.067Z,99208.72
2023-04-16T06:20:44.064Z,99203.88
2023-04-16T06:23:17.256Z,99199.22
2023-04-16T06:25:50.396Z,99205.19
2023-04-16T06:28:24.979Z,99200.19
2023-04-16T06:30:58.238Z,99207.19
2023-04-16T06:33:31.310Z,99207.50
2023-04-16T06:36:04.518Z,99211.88
2023-04-16T06:38:37.989Z,99203.28
2023-04-16T06:41:11.504Z,99202.72
2023-04-16T06:43:46.797Z,99205.81
2023-04-16T06:46:19.858Z,99211.56
2023-04-16T06:48:52.910Z,99214.06
2023-04-16T06:51:26.747Z,99208.69
2023-04-16T06:53:59.934Z,99210.22
2023-04-16T06:56:33.346Z,99202.84
2023-04-16T06:59:08.339Z,99216.75
2023-04-16T07:01:41.535Z,99214.91
2023-04-16T07:04:14.652Z,99217.94
2023-04-16T07:06:47.701Z,99225.38
2023-04-16T07:09:21.000Z,99225.38
2023-04-16T07:12:03.047Z,99227.34
2023-04-16T07:14:37.559Z,99227.00
2023-04-16T07:17:10.557Z,99222.66
2023-04-16T07:19:43.628Z,99224.25
2023-04-16T07:22:17.012Z,99229.75
2023-04-16T07:24:50.349Z,99218.00
2023-04-16T07:27:23.802Z,99220.69
2023-04-16T07:29:58.095Z,99227.06
2023-04-16T07:32:31.179Z,99223.72
2023-04-16T07:35:04.922Z,99212.34
2023-04-16T07:37:38.978Z,99211.28
2023-04-16T07:40:12.622Z,99204.22
2023-04-16T07:42:45.679Z,99204.00
2023-04-16T07:45:20.356Z,99208.25
2023-04-16T07:47:53.338Z,99191.50
2023-04-16T07:50:26.270Z,99190.81
2023-04-16T07:52:59.458Z,99181.88
2023-04-16T07:55:32.746Z,99185.59
2023-04-16T07:58:06.505Z,99183.25
2023-04-16T08:00:40.854Z,99190.03
2023-04-16T08:03:13.968Z,99191.28
2023-04-16T08:05:47.584Z,99192.25
2023-04-16T08:08:20.847Z,99191.06
2023-04-16T08:10:56.031Z,99193.56
2023-04-16T08:13:32.318Z,99189.91
2023-04-16T08:16:08.625Z,99187.03
2023-04-16T08:18:41.706Z,99193.16
2023-04-16T08:21:14.582Z,99190.16
2023-04-16T08:23:48.087Z,99181.22
2023-04-16T08:26:21.381Z,99186.56
2023-04-16T08:28:54.572Z,99178.63
2023-04-16T08:31:29.140Z,99169.63
2023-04-16T08:34:02.524Z,99169.47
2023-04-16T08:36:35.539Z,99174.63
2023-04-16T08:39:09.482Z,99169.91
2023-04-16T08:41:44.878Z,99168.84
2023-04-16T08:44:21.451Z,99173.56
2023-04-16T08:46:58.238Z,99171.50
2023-04-16T08:49:33.530Z,99162.00
2023-04-16T08:52:07.424Z,99166.78
2023-04-16T08:54:45.129Z,99161.44
2023-04-16T08:57:20.239Z,99160.44
2023-04-16T08:59:55.481Z,99170.97
2023-04-16T09:02:30.739Z,99161.56
2023-04-16T09:05:04.690Z,99162.25
2023-04-16T09:07:37.968Z,99157.03
2023-04-16T09:10:11.310Z,99158.22
2023-04-16T09:12:45.349Z,99154.16
2023-04-16T09:15:21.639Z,99155.31
2023-04-16T09:17:57.672Z,99156.47
2023-04-16T09:20:31.000Z,99150.91
2023-04-16T09:23:04.031Z,99151.06
2023-04-16T09:25:37.379Z,99157.28
2023-04-16T09:28:10.909Z,99141.78
2023-04-16T09:30:44.295Z,99141.94
2023-04-16T09:33:22.558Z,99145.97
2023-04-16T09:35:56.022Z,99140.59
2023-04-16T09:38:46.440Z,99140.81
2023-04-16T09:41:20.067Z,99144.00
2023-04-16T09:43:57.698Z,99142.94
2023-04-16T09:46:31.417Z,99141.94
2023-04-16T09:49:09.957Z,99150.56
2023-04-16T09:51:43.957Z,99131.66
2023-04-16T09:54:16.928Z,99137.91
2023-04-16T09:56:49.920Z,99138.78
2023-04-16T09:59:23.553Z,99122.44
2023-04-16T10:02:15.418Z,99119.09
2023-04-16T10:04:51.838Z,99115.75
2023-04-16T10:07:29.018Z,99113.06
2023-04-16T10:10:02.432Z,99123.91
2023-04-16T10:12:36.670Z,99121.53
2023-04-16T10:15:10.407Z,99129.50
2023-04-16T10:17:44.191Z,99118.28
2023-04-16T10:20:19.058Z,99121.88
2023-04-16T10:22:52.052Z,99125.22
2023-04-16T10:25:25.731Z,99135.22
2023-04-16T10:28:00.118Z,99133.81
2023-04-16T10:30:33.445Z,99125.44
2023-04-16T10:33:07.109Z,99128.41
2023-04-16T10:35:42.029Z,99135.56
2023-04-16T10:38:25.613Z,99123.53
2023-04-16T10:41:03.079Z,99124.38
2023-04-16T10:43:40.546Z,99128.25
2023-04-16T10:46:32.789Z,99123.34
2023-04-16T10:49:13.942Z,99113.16
2023-04-16T10:51:58.173Z,99097.06
2023-04-16T10:54:31.894Z,99093.38
2023-04-16T10:57:05.626Z,99097.63
2023-04-16T10:59:39.747Z,99106.38
2023-04-16T11:02:14.716Z,99107.50
2023-04-16T11:04:49.109Z,99120.03
2023-04-16T11:07:32.654Z,99115.19
2023-04-16T11:10:06.237Z,99118.66
2023-04-16T11:12:40.525Z,99115.19
2023-04-16T11:15:15.128Z,99112.53
2023-04-16T11:17:50.482Z,99111.31
2023-04-16T11:20:24.828Z,99101.47
2023-04-16T11:22:59.535Z,99111.75
2023-04-16T11:25:34.242Z,99102.06
2023-04-16T11:28:07.609Z,99097.16
2023-04-16T11:30:41.666Z,99083.38
2023-04-16T11:33:14.692Z,99083.66
2023-04-16T11:35:57.349Z,99074.78
2023-04-16T11:38:36.416Z,99073.75
2023-04-16T11:41:09.875Z,99075.91
2023-04-16T11:43:43.151Z,99074.59
2023-04-16T11:46:27.027Z,99073.84
2023-04-16T11:49:01.145Z,99080.25
2023-04-16T11:51:34.130Z,99073.03
2023-04-16T11:54:11.692Z,99069.56
2023-04-16T11:56:46.778Z,99071.44
2023-04-16T11:59:20.647Z,99073.84
2023-04-16T12:01:55.769Z,99068.28
2023-04-16T12:04:29.580Z,99062.69
2023-04-16T12:07:06.240Z,99060.66
2023-04-16T12:09:41.448Z,99067.91
2023-04-16T12:12:27.765Z,99055.84
2023-04-16T12:15:03.737Z,99050.44
2023-04-16T12:17:37.714Z,99043.38
2023-04-16T12:20:11.971Z,99042.25
2023-04-16T12:22:46.180Z,99033.53
2023-04-16T12:25:20.990Z,99030.16
2023-04-16T12:27:56.453Z,99020.81
2023-04-16T12:30:31.014Z,99015.22
2023-04-16T12:33:17.463Z,99004.69
2023-04-16T12:35:51.108Z,99002.28
2023-04-16T12:38:34.400Z,99001.97
2023-04-16T12:41:08.787Z,98995.00
2023-04-16T12:43:42.010Z,98987.19
2023-04-16T12:46:15.924Z,98977.81
2023-04-16T12:48:49.863Z,98983.22
2023-04-16T12:51:22.975Z,98979.09
2023-04-16T12:53:56.432Z,98980.75
2023-04-16T12:56:31.556Z,98978.91
2023-04-16T12:59:05.024Z,98970.31
2023-04-16T13:01:38.144Z,98974.06
2023-04-16T13:04:11.337Z,98962.38
2023-04-16T13:06:44.413Z,98967.84
2023-04-16T13:09:18.185Z,98965.03
2023-04-16T13:12:03.914Z,98955.75
2023-04-16T13:14:37.323Z,98955.78
2023-04-16T13:17:10.781Z,98961.25
2023-04-16T13:19:43.672Z,98965.16
2023-04-16T13:22:16.846Z,98960.66
2023-04-16T13:24:50.052Z,98960.38
2023-04-16T13:27:24.475Z,98950.13
2023-04-16T13:29:57.416Z,98950.34
2023-04-16T13:32:30.761Z,98957.63
2023-04-16T13:35:03.749Z,98951.47
2023-04-16T13:37:36.842Z,98956.69
2023-04-16T13:40:10.790Z,98950.75
2023-04-16T13:42:45.326Z,98955.31
2023-04-16T13:45:20.388Z,98956.81
2023-04-16T13:47:54.049Z,98950.63
2023-04-16T13:50:27.050Z,98945.47
2023-04-16T13:53:00.756Z,98944.81
2023-04-16T13:55:34.077Z,98942.47
2023-04-16T13:58:08.634Z,98945.72
2023-04-16T14:00:41.764Z,98951.31
2023-04-16T14:03:14.942Z,98945.88
2023-04-16T14:05:47.958Z,98946.91
2023-04-16T14:08:21.333Z,98944.47
2023-04-16T14:10:55.812Z,98939.84
2023-04-16T14:13:30.579Z,98944.84
2023-04-16T14:16:03.735Z,98942.72
2023-04-16T14:18:41.061Z,98932.38
2023-04-16T14:21:14.208Z,98939.13
2023-04-16T14:23:47.508Z,98941.66
2023-04-16T14:26:20.738Z,98943.88
2023-04-16T14:28:55.186Z,98951.38
2023-04-16T14:31:28.146Z,98945.34
2023-04-16T14:34:01.465Z,98935.41
2023-04-16T14:36:34.899Z,98939.78
2023-04-16T14:39:09.485Z,98942.63
2023-04-16T14:41:42.826Z,98949.13
2023-04-16T14:44:17.162Z,98950.75
2023-04-16T14:46:50.296Z,98952.06
2023-04-16T14:49:28.319Z,98943.72
2023-04-16T14:52:02.229Z,98954.50
2023-04-16T14:54:35.376Z,98956.59
2023-04-16T14:57:08.275Z,98967.38
2023-04-16T14:59:43.353Z,98954.91
2023-04-16T15:02:16.739Z,98958.00
2023-04-16T15:04:49.760Z,98965.66
2023-04-16T15:07:23.261Z,98965.84
2023-04-16T15:09:56.614Z,98976.41
2023-04-16T15:12:31.089Z,98979.72
2023-04-16T15:15:06.056Z,98968.91
2023-04-16T15:17:39.147Z,98974.91
2023-04-16T15:20:13.179Z,98970.13
2023-04-16T15:22:46.443Z,98971.25
2023-04-16T15:25:19.585Z,98974.31
2023-04-16T15:27:52.436Z,98975.75
2023-04-16T15:30:26.898Z,98981.09
2023-04-16T15:32:59.904Z,98984.44
2023-04-16T15:35:33.047Z,98979.66
2023-04-16T15:38:06.293Z,98978.41
2023-04-16T15:40:39.653Z,98975.31
2023-04-16T15:43:12.662Z,98976.16
2023-04-16T15:45:47.055Z,98974.75
2023-04-16T15:48:20.013Z,98978.25
2023-04-16T15:50:53.372Z,98985.38
2023-04-16T15:53:26.661Z,98985.72
2023-04-16T15:55:59.866Z,98986.16
2023-04-16T15:58:32.753Z,98989.22
2023-04-16T16:01:07.183Z,98986.00
2023-04-16T16:03:40.367Z,98996.50
2023-04-16T16:06:13.838Z,98991.88
2023-04-16T16:08:46.908Z,98988.09
2023-04-16T16:11:20.629Z,98985.56
2023-04-16T16:13:54.845Z,98990.44
2023-04-16T16:16:30.187Z,98984.50
2023-04-16T16:19:03.344Z,98994.75
2023-04-16T16:21:36.426Z,98985.59
2023-04-16T16:24:09.659Z,98992.56
2023-04-16T16:26:43.409Z,98994.75
2023-04-16T16:29:16.670Z,98983.69
2023-04-16T16:31:51.212Z,98993.09
2023-04-16T16:34:24.305Z,98983.81
2023-04-16T16:36:57.384Z,98989.56
2023-04-16T16:39:30.658Z,98985.19
2023-04-16T16:42:04.158Z,98980.72
2023-04-16T16:50:18.901Z,98984.53
2023-04-16T16:52:52.345Z,98990.63
2023-04-16T16:55:25.647Z,98998.75
2023-04-16T16:57:59.144Z,98997.03
2023-04-16T17:00:32.183Z,99003.56
2023-04-16T17:03:06.560Z,99009.00
2023-04-16T17:05:39.490Z,99016.69
2023-04-16T17:08:12.538Z,99015.13
2023-04-16T17:10:45.941Z,99016.72
2023-04-16T17:13:20.654Z,99016.84
2023-04-16T17:15:54.192Z,99019.13
2023-04-16T17:18:28.745Z,99025.09
2023-04-16T17:21:01.721Z,99026.44
2023-04-16T17:23:34.643Z,99020.91
2023-04-16T17:26:07.727Z,99027.41
2023-04-16T17:28:41.321Z,99024.09
2023-04-16T17:31:14.912Z,99021.28
2023-04-16T17:33:50.628Z,99028.56
2023-04-16T17:36:23.968Z,99022.03
2023-04-16T17:38:57.251Z,99031.59
2023-04-16T17:41:30.599Z,99027.06
2023-04-16T17:44:03.842Z,99031.56
2023-04-16T17:46:36.890Z,99034.50
2023-04-16T17:49:12.535Z,99034.06
2023-04-16T17:51:45.661Z,99032.28
2023-04-16T17:54:18.944Z,99042.94
2023-04-16T17:56:52.265Z,99041.09
2023-04-16T17:59:25.951Z,99044.50
2023-04-16T18:01:59.252Z,99039.47
2023-04-16T18:04:34.263Z,99040.97
2023-04-16T18:07:07.277Z,99042.81
2023-04-16T18:09:40.851Z,99048.53
2023-04-16T18:12:14.895Z,99060.94
2023-04-16T18:14:48.091Z,99069.72
2023-04-16T18:17:22.806Z,99066.88
2023-04-16T18:19:57.337Z,99070.59
2023-04-16T18:22:30.454Z,99070.84
2023-04-16T18:25:04.447Z,99075.09
2023-04-16T18:27:37.822Z,99078.06
2023-04-16T18:30:20.157Z,99072.38
2023-04-16T18:35:36.213Z,99080.34
2023-04-16T18:38:09.448Z,99076.91
2023-04-16T18:40:42.765Z,99089.47
2023-04-16T18:43:15.950Z,99081.44
2023-04-16T18:45:48.904Z,99083.47
2023-04-16T18:48:21.876Z,99087.28
2023-04-16T18:50:58.136Z,99088.69
2023-04-16T18:53:31.444Z,99080.19
2023-04-16T18:56:05.180Z,99082.53
2023-04-16T18:58:38.462Z,99086.56
2023-04-16T19:01:13.634Z,99088.72
2023-04-16T19:03:46.627Z,99088.53
2023-04-16T19:06:21.134Z,99090.88
2023-04-16T19:08:54.436Z,99078.16
2023-04-16T19:11:27.435Z,99081.19
2023-04-16T19:14:03.396Z,99092.25
2023-04-16T19:16:36.620Z,99089.59
2023-04-16T19:19:10.101Z,99084.53
2023-04-16T19:21:44.841Z,99074.44
2023-04-16T19:24:18.890Z,99082.19
2023-04-16T19:26:51.854Z,99082.22
2023-04-16T19:29:24.985Z,99083.69
2023-04-16T19:31:58.091Z,99077.84
2023-04-16T19:34:31.175Z,99073.16
2023-04-16T19:37:06.078Z,99074.47
2023-04-16T19:39:39.205Z,99076.84
2023-04-16T19:42:13.122Z,99068.72
2023-04-16T19:44:46.720Z,99063.09
2023-04-16T19:47:20.029Z,99053.88
2023-04-16T19:49:53.011Z,99053.03
2023-04-16T19:52:27.804Z,99055.91
2023-04-16T19:55:00.855Z,99052.06
2023-04-16T19:57:34.315Z,99053.22
2023-04-16T20:00:12.003Z,99057.22
2023-04-16T20:02:45.226Z,99052.03
2023-04-16T20:05:18.500Z,99058.69
2023-04-16T20:07:53.270Z,99063.59
2023-04-16T20:10:26.661Z,99062.06
2023-04-16T20:13:00.552Z,99057.38
2023-04-16T20:15:33.570Z,99057.50
2023-04-16T20:18:07.520Z,99060.69
2023-04-16T20:20:41.568Z,99052.53
2023-04-16T20:23:16.254Z,99061.22
2023-04-16T20:25:49.253Z,99057.06
2023-04-16T20:28:22.306Z,99061.44
2023-04-16T20:30:55.371Z,99056.22
2023-04-16T20:33:28.291Z,99061.09
2023-04-16T20:36:01.583Z,99064.13
2023-04-16T20:38:37.576Z,99066.13
2023-04-16T20:41:20.310Z,99057.06
2023-04-16T20:43:54.050Z,99064.72
2023-04-16T20:46:30.293Z,99055.38
2023-04-16T20:49:03.719Z,99053.03
2023-04-16T20:51:38.423Z,99058.59
2023-04-16T20:54:12.874Z,99068.47
2023-04-16T20:56:45.939Z,99067.78
2023-04-16T20:59:19.222Z,99067.63
2023-04-16T21:01:53.053Z,99058.66
2023-04-16T21:04:26.599Z,99059.84
2023-04-16T21:07:04.283Z,99059.06
2023-04-16T21:09:38.816Z,99064.44
2023-04-16T21:12:12.324Z,99057.75
2023-04-16T21:14:45.813Z,99068.19
2023-04-16T21:17:19.750Z,99068.38
2023-04-16T21:19:52.668Z,99069.72
2023-04-16T21:22:25.927Z,99071.22
2023-04-16T21:25:02.615Z,99064.97
2023-04-16T21:27:35.612Z,99062.59
2023-04-16T21:30:09.554Z,99055.00
2023-04-16T21:32:42.948Z,99057.28
2023-04-16T21:35:16.391Z,99066.25
2023-04-16T21:37:49.409Z,99064.19
2023-04-16T21:40:24.276Z,99067.75
2023-04-16T21:42:57.418Z,99070.63
2023-04-16T21:45:31.459Z,99067.31
2023-04-16T21:48:04.809Z,99064.94
2023-04-16T21:50:37.994Z,99070.28
2023-04-16T21:53:10.987Z,99074.50
2023-04-16T21:55:45.272Z,99061.75
2023-04-16T21:58:18.328Z,99065.44
2023-04-16T22:00:52.276Z,99066.38
2023-04-16T22:03:28.259Z,99060.53
2023-04-16T22:06:01.956Z,99063.22
2023-04-16T22:08:35.282Z,99056.94
2023-04-16T22:11:09.754Z,99063.91
2023-04-16T22:13:43.703Z,99059.16
2023-04-16T22:16:17.667Z,99007.00
2023-04-16T22:18:50.659Z,99067.22
2023-04-16T22:21:23.780Z,99065.56
2023-04-16T22:23:57.071Z,99057.72
2023-04-16T22:26:31.470Z,99058.06
2023-04-16T22:29:04.648Z,99054.72
2023-04-16T22:31:38.105Z,99048.44
2023-04-16T22:34:11.081Z,99043.69
2023-04-16T22:36:44.126Z,99046.97
2023-04-16T22:39:17.218Z,99037.63
2023-04-16T22:41:51.642Z,99039.88
2023-04-16T22:44:24.612Z,99040.91
2023-04-16T22:46:58.140Z,99042.94
2023-04-16T22:49:33.332Z,99044.47
2023-04-16T22:52:06.393Z,99041.03
2023-04-16T22:54:39.427Z,99039.19
2023-04-16T22:57:13.782Z,99041.75
2023-04-16T22:59:46.713Z,99036.28
2023-04-16T23:02:20.792Z,99029.41
2023-04-16T23:04:53.939Z,99046.88
2023-04-16T23:07:27.296Z,99043.53
2023-04-16T23:10:00.339Z,99035.50
2023-04-16T23:12:37.159Z,99027.16
2023-04-16T23:15:11.598Z,99028.94
2023-04-16T23:17:45.669Z,99024.59
2023-04-16T23:20:18.927Z,99017.59
2023-04-16T23:22:52.832Z,99031.63
2023-04-16T23:25:25.751Z,99020.72
2023-04-16T23:28:00.192Z,99029.97
2023-04-16T23:30:33.390Z,99026.28
2023-04-16T23:33:06.822Z,99020.47
2023-04-16T23:35:39.977Z,99016.78
2023-04-16T23:38:12.973Z,99016.56
2023-04-16T23:40:45.981Z,99005.72
2023-04-16T23:43:20.356Z,99007.06
2023-04-16T23:45:53.522Z,99005.41
2023-04-16T23:48:26.738Z,99005.03
2023-04-16T23:51:00.604Z,99005.66
2023-04-16T23:53:33.530Z,99009.13
2023-04-16T23:56:06.868Z,99003.41
2023-04-16T23:58:41.257Z,99003.91
